sensor_id;sensor_type;location;lat;lon;timestamp;P1;durP1;ratioP1;P2;durP2;ratioP2
12228;SDS011;6177;52.402;9.800;2023-02-28T00:00:40;6.13;;;5.63;;
12228;SDS011;6177;52.402;9.800;2023-02-28T00:03:31;5.60;;;5.17;;
12228;SDS011;6177;52.402;9.800;2023-02-28T00:06:25;5.37;;;4.97;;
12228;SDS011;6177;52.402;9.800;2023-02-28T00:09:16;6.10;;;5.50;;
12228;SDS011;6177;52.402;9.800;2023-02-28T00:12:07;5.80;;;5.30;;
12228;SDS011;6177;52.402;9.800;2023-02-28T00:15:01;5.83;;;5.27;;
12228;SDS011;6177;52.402;9.800;2023-02-28T00:17:52;5.40;;;5.00;;
12228;SDS011;6177;52.402;9.800;2023-02-28T00:20:43;6.53;;;5.90;;
12228;SDS011;6177;52.402;9.800;2023-02-28T00:23:34;5.97;;;5.47;;
12228;SDS011;6177;52.402;9.800;2023-02-28T00:26:25;6.80;;;6.20;;
12228;SDS011;6177;52.402;9.800;2023-02-28T00:29:16;5.93;;;5.50;;
12228;SDS011;6177;52.402;9.800;2023-02-28T00:32:08;6.30;;;5.73;;
12228;SDS011;6177;52.402;9.800;2023-02-28T00:34:59;5.53;;;5.07;;
12228;SDS011;6177;52.402;9.800;2023-02-28T00:37:50;8.37;;;6.13;;
12228;SDS011;6177;52.402;9.800;2023-02-28T00:40:41;6.97;;;6.37;;
12228;SDS011;6177;52.402;9.800;2023-02-28T00:43:33;6.40;;;5.90;;
12228;SDS011;6177;52.402;9.800;2023-02-28T00:46:24;6.33;;;5.83;;
12228;SDS011;6177;52.402;9.800;2023-02-28T00:49:15;7.07;;;6.47;;
12228;SDS011;6177;52.402;9.800;2023-02-28T00:52:06;6.27;;;5.67;;
12228;SDS011;6177;52.402;9.800;2023-02-28T00:54:58;6.97;;;6.37;;
12228;SDS011;6177;52.402;9.800;2023-02-28T00:57:49;7.40;;;6.70;;
12228;SDS011;6177;52.402;9.800;2023-02-28T01:00:40;8.80;;;7.93;;
12228;SDS011;6177;52.402;9.800;2023-02-28T01:03:31;6.93;;;6.23;;
12228;SDS011;6177;52.402;9.800;2023-02-28T01:06:22;6.47;;;5.80;;
12228;SDS011;6177;52.402;9.800;2023-02-28T01:09:13;6.37;;;5.80;;
12228;SDS011;6177;52.402;9.800;2023-02-28T01:12:07;7.40;;;6.03;;
12228;SDS011;6177;52.402;9.800;2023-02-28T01:14:59;6.93;;;6.23;;
12228;SDS011;6177;52.402;9.800;2023-02-28T01:17:50;7.10;;;6.50;;
12228;SDS011;6177;52.402;9.800;2023-02-28T01:20:41;6.37;;;5.87;;
12228;SDS011;6177;52.402;9.800;2023-02-28T01:23:33;6.27;;;5.77;;
12228;SDS011;6177;52.402;9.800;2023-02-28T01:26:24;8.20;;;6.50;;
12228;SDS011;6177;52.402;9.800;2023-02-28T01:29:15;6.60;;;6.00;;
12228;SDS011;6177;52.402;9.800;2023-02-28T01:32:06;7.23;;;6.50;;
12228;SDS011;6177;52.402;9.800;2023-02-28T01:34:59;6.70;;;6.10;;
12228;SDS011;6177;52.402;9.800;2023-02-28T01:37:50;6.80;;;6.10;;
12228;SDS011;6177;52.402;9.800;2023-02-28T01:40:41;6.70;;;5.53;;
12228;SDS011;6177;52.402;9.800;2023-02-28T01:43:51;6.87;;;6.27;;
12228;SDS011;6177;52.402;9.800;2023-02-28T01:46:48;6.67;;;6.07;;
12228;SDS011;6177;52.402;9.800;2023-02-28T01:49:39;6.27;;;5.80;;
12228;SDS011;6177;52.402;9.800;2023-02-28T01:52:30;6.73;;;6.03;;
12228;SDS011;6177;52.402;9.800;2023-02-28T01:55:21;6.03;;;5.53;;
12228;SDS011;6177;52.402;9.800;2023-02-28T01:58:12;7.27;;;6.67;;
12228;SDS011;6177;52.402;9.800;2023-02-28T02:01:03;6.03;;;5.47;;
12228;SDS011;6177;52.402;9.800;2023-02-28T02:03:55;5.53;;;5.07;;
12228;SDS011;6177;52.402;9.800;2023-02-28T02:06:49;5.47;;;5.07;;
12228;SDS011;6177;52.402;9.800;2023-02-28T02:09:40;6.03;;;5.43;;
12228;SDS011;6177;52.402;9.800;2023-02-28T02:12:35;6.10;;;5.60;;
12228;SDS011;6177;52.402;9.800;2023-02-28T02:15:52;6.40;;;5.83;;
12228;SDS011;6177;52.402;9.800;2023-02-28T02:25:34;6.47;;;5.90;;
12228;SDS011;6177;52.402;9.800;2023-02-28T02:35:25;6.23;;;5.40;;
12228;SDS011;6177;52.402;9.800;2023-02-28T02:38:19;6.70;;;6.10;;
12228;SDS011;6177;52.402;9.800;2023-02-28T02:44:43;7.50;;;6.67;;
12228;SDS011;6177;52.402;9.800;2023-02-28T02:48:05;7.57;;;6.80;;
12228;SDS011;6177;52.402;9.800;2023-02-28T02:51:04;8.73;;;7.77;;
12228;SDS011;6177;52.402;9.800;2023-02-28T02:54:13;8.20;;;7.50;;
12228;SDS011;6177;52.402;9.800;2023-02-28T02:57:07;9.73;;;8.60;;
12228;SDS011;6177;52.402;9.800;2023-02-28T03:00:00;8.97;;;8.07;;
12228;SDS011;6177;52.402;9.800;2023-02-28T03:02:54;8.20;;;7.00;;
12228;SDS011;6177;52.402;9.800;2023-02-28T03:05:49;7.80;;;7.13;;
12228;SDS011;6177;52.402;9.800;2023-02-28T03:08:41;7.30;;;6.57;;
12228;SDS011;6177;52.402;9.800;2023-02-28T03:11:32;8.00;;;7.37;;
12228;SDS011;6177;52.402;9.800;2023-02-28T03:14:30;7.70;;;7.00;;
12228;SDS011;6177;52.402;9.800;2023-02-28T03:17:41;8.60;;;6.17;;
12228;SDS011;6177;52.402;9.800;2023-02-28T03:26:51;6.33;;;5.83;;
12228;SDS011;6177;52.402;9.800;2023-02-28T03:29:46;6.80;;;6.20;;
12228;SDS011;6177;52.402;9.800;2023-02-28T03:35:52;6.27;;;5.77;;
12228;SDS011;6177;52.402;9.800;2023-02-28T03:38:46;6.33;;;5.83;;
12228;SDS011;6177;52.402;9.800;2023-02-28T03:41:48;7.13;;;5.27;;
12228;SDS011;6177;52.402;9.800;2023-02-28T03:44:48;6.77;;;5.63;;
12228;SDS011;6177;52.402;9.800;2023-02-28T03:47:51;7.23;;;6.50;;
12228;SDS011;6177;52.402;9.800;2023-02-28T03:50:44;6.17;;;5.63;;
12228;SDS011;6177;52.402;9.800;2023-02-28T03:53:40;7.00;;;6.40;;
12228;SDS011;6177;52.402;9.800;2023-02-28T03:56:36;6.37;;;5.77;;
12228;SDS011;6177;52.402;9.800;2023-02-28T03:59:29;7.00;;;6.30;;
12228;SDS011;6177;52.402;9.800;2023-02-28T04:02:23;6.97;;;6.27;;
12228;SDS011;6177;52.402;9.800;2023-02-28T04:05:15;7.40;;;6.70;;
12228;SDS011;6177;52.402;9.800;2023-02-28T04:08:07;8.17;;;7.40;;
12228;SDS011;6177;52.402;9.800;2023-02-28T04:11:03;9.57;;;7.70;;
12228;SDS011;6177;52.402;9.800;2023-02-28T04:13:56;10.30;;;8.73;;
12228;SDS011;6177;52.402;9.800;2023-02-28T04:16:47;9.60;;;8.60;;
12228;SDS011;6177;52.402;9.800;2023-02-28T04:19:38;9.37;;;8.53;;
12228;SDS011;6177;52.402;9.800;2023-02-28T04:22:29;10.03;;;9.03;;
12228;SDS011;6177;52.402;9.800;2023-02-28T04:25:21;9.70;;;8.70;;
12228;SDS011;6177;52.402;9.800;2023-02-28T04:28:13;9.90;;;9.00;;
12228;SDS011;6177;52.402;9.800;2023-02-28T04:31:04;10.23;;;9.23;;
12228;SDS011;6177;52.402;9.800;2023-02-28T04:33:55;9.00;;;8.10;;
12228;SDS011;6177;52.402;9.800;2023-02-28T04:36:47;9.40;;;8.53;;
12228;SDS011;6177;52.402;9.800;2023-02-28T04:39:39;8.80;;;8.00;;
12228;SDS011;6177;52.402;9.800;2023-02-28T04:42:31;9.40;;;8.53;;
12228;SDS011;6177;52.402;9.800;2023-02-28T04:45:25;8.83;;;7.83;;
12228;SDS011;6177;52.402;9.800;2023-02-28T04:48:16;9.40;;;8.43;;
12228;SDS011;6177;52.402;9.800;2023-02-28T04:51:08;8.50;;;7.60;;
12228;SDS011;6177;52.402;9.800;2023-02-28T04:54:00;8.47;;;7.77;;
12228;SDS011;6177;52.402;9.800;2023-02-28T04:56:50;8.70;;;7.90;;
12228;SDS011;6177;52.402;9.800;2023-02-28T04:59:41;8.00;;;7.30;;
12228;SDS011;6177;52.402;9.800;2023-02-28T05:02:34;9.00;;;8.17;;
12228;SDS011;6177;52.402;9.800;2023-02-28T05:05:25;8.97;;;7.40;;
12228;SDS011;6177;52.402;9.800;2023-02-28T05:08:16;8.37;;;7.57;;
12228;SDS011;6177;52.402;9.800;2023-02-28T05:11:15;8.03;;;7.23;;
12228;SDS011;6177;52.402;9.800;2023-02-28T05:14:11;8.70;;;7.67;;
12228;SDS011;6177;52.402;9.800;2023-02-28T05:17:03;10.20;;;6.83;;
12228;SDS011;6177;52.402;9.800;2023-02-28T05:19:54;8.00;;;7.20;;
12228;SDS011;6177;52.402;9.800;2023-02-28T05:22:45;7.50;;;7.00;;
12228;SDS011;6177;52.402;9.800;2023-02-28T05:25:35;10.07;;;7.80;;
12228;SDS011;6177;52.402;9.800;2023-02-28T05:28:26;8.07;;;7.37;;
12228;SDS011;6177;52.402;9.800;2023-02-28T05:31:17;8.43;;;7.57;;
12228;SDS011;6177;52.402;9.800;2023-02-28T05:34:08;7.70;;;7.00;;
12228;SDS011;6177;52.402;9.800;2023-02-28T05:37:01;8.03;;;7.37;;
12228;SDS011;6177;52.402;9.800;2023-02-28T05:39:52;8.27;;;7.57;;
12228;SDS011;6177;52.402;9.800;2023-02-28T05:42:42;6.80;;;6.30;;
12228;SDS011;6177;52.402;9.800;2023-02-28T05:45:33;6.73;;;6.23;;
12228;SDS011;6177;52.402;9.800;2023-02-28T05:48:24;7.77;;;6.80;;
12228;SDS011;6177;52.402;9.800;2023-02-28T05:51:16;6.63;;;6.00;;
12228;SDS011;6177;52.402;9.800;2023-02-28T05:54:07;6.83;;;6.23;;
12228;SDS011;6177;52.402;9.800;2023-02-28T05:56:58;6.27;;;5.80;;
12228;SDS011;6177;52.402;9.800;2023-02-28T05:59:49;7.07;;;5.90;;
12228;SDS011;6177;52.402;9.800;2023-02-28T06:02:40;6.60;;;6.00;;
12228;SDS011;6177;52.402;9.800;2023-02-28T06:05:31;7.00;;;6.00;;
12228;SDS011;6177;52.402;9.800;2023-02-28T06:08:22;6.20;;;5.70;;
12228;SDS011;6177;52.402;9.800;2023-02-28T06:11:13;6.63;;;5.77;;
12228;SDS011;6177;52.402;9.800;2023-02-28T06:14:04;6.03;;;5.53;;
12228;SDS011;6177;52.402;9.800;2023-02-28T06:16:55;12.83;;;5.40;;
12228;SDS011;6177;52.402;9.800;2023-02-28T06:19:46;10.80;;;6.43;;
12228;SDS011;6177;52.402;9.800;2023-02-28T06:22:38;6.87;;;5.17;;
12228;SDS011;6177;52.402;9.800;2023-02-28T06:25:29;5.83;;;5.30;;
12228;SDS011;6177;52.402;9.800;2023-02-28T06:28:20;6.73;;;6.13;;
12228;SDS011;6177;52.402;9.800;2023-02-28T06:31:12;6.73;;;6.03;;
12228;SDS011;6177;52.402;9.800;2023-02-28T06:34:05;6.73;;;6.13;;
12228;SDS011;6177;52.402;9.800;2023-02-28T06:36:56;14.40;;;12.97;;
12228;SDS011;6177;52.402;9.800;2023-02-28T06:39:47;31.83;;;24.43;;
12228;SDS011;6177;52.402;9.800;2023-02-28T06:42:37;8.50;;;6.57;;
12228;SDS011;6177;52.402;9.800;2023-02-28T06:45:27;7.27;;;5.83;;
12228;SDS011;6177;52.402;9.800;2023-02-28T06:48:17;6.80;;;6.10;;
12228;SDS011;6177;52.402;9.800;2023-02-28T06:51:13;8.27;;;6.53;;
12228;SDS011;6177;52.402;9.800;2023-02-28T06:54:10;5.80;;;5.30;;
12228;SDS011;6177;52.402;9.800;2023-02-28T06:57:01;7.53;;;6.70;;
12228;SDS011;6177;52.402;9.800;2023-02-28T06:59:52;8.10;;;7.13;;
12228;SDS011;6177;52.402;9.800;2023-02-28T07:02:43;7.50;;;6.83;;
12228;SDS011;6177;52.402;9.800;2023-02-28T07:05:35;7.70;;;6.87;;
12228;SDS011;6177;52.402;9.800;2023-02-28T07:08:26;7.30;;;6.60;;
12228;SDS011;6177;52.402;9.800;2023-02-28T07:11:18;8.30;;;6.77;;
12228;SDS011;6177;52.402;9.800;2023-02-28T07:14:09;10.30;;;5.90;;
12228;SDS011;6177;52.402;9.800;2023-02-28T07:16:59;7.67;;;6.43;;
12228;SDS011;6177;52.402;9.800;2023-02-28T07:19:50;10.80;;;9.83;;
12228;SDS011;6177;52.402;9.800;2023-02-28T07:22:41;8.87;;;6.87;;
12228;SDS011;6177;52.402;9.800;2023-02-28T07:25:32;8.40;;;6.97;;
12228;SDS011;6177;52.402;9.800;2023-02-28T07:28:24;13.23;;;7.27;;
12228;SDS011;6177;52.402;9.800;2023-02-28T07:31:15;10.00;;;7.20;;
12228;SDS011;6177;52.402;9.800;2023-02-28T07:34:05;10.37;;;7.57;;
12228;SDS011;6177;52.402;9.800;2023-02-28T07:36:57;18.73;;;16.83;;
12228;SDS011;6177;52.402;9.800;2023-02-28T07:39:47;8.30;;;7.50;;
12228;SDS011;6177;52.402;9.800;2023-02-28T07:42:41;8.77;;;7.03;;
12228;SDS011;6177;52.402;9.800;2023-02-28T07:45:32;9.00;;;7.70;;
12228;SDS011;6177;52.402;9.800;2023-02-28T07:48:24;11.73;;;7.13;;
12228;SDS011;6177;52.402;9.800;2023-02-28T07:51:15;7.03;;;6.43;;
12228;SDS011;6177;52.402;9.800;2023-02-28T07:54:06;9.27;;;6.57;;
12228;SDS011;6177;52.402;9.800;2023-02-28T07:56:57;6.60;;;6.03;;
12228;SDS011;6177;52.402;9.800;2023-02-28T07:59:48;6.70;;;6.10;;
12228;SDS011;6177;52.402;9.800;2023-02-28T08:02:38;7.30;;;5.60;;
12228;SDS011;6177;52.402;9.800;2023-02-28T08:05:29;6.17;;;5.57;;
12228;SDS011;6177;52.402;9.800;2023-02-28T08:08:21;6.00;;;5.40;;
12228;SDS011;6177;52.402;9.800;2023-02-28T08:11:12;6.17;;;5.57;;
12228;SDS011;6177;52.402;9.800;2023-02-28T08:14:03;7.40;;;4.70;;
12228;SDS011;6177;52.402;9.800;2023-02-28T08:16:54;6.20;;;5.60;;
12228;SDS011;6177;52.402;9.800;2023-02-28T08:19:45;9.13;;;7.23;;
12228;SDS011;6177;52.402;9.800;2023-02-28T08:22:36;5.03;;;4.70;;
12228;SDS011;6177;52.402;9.800;2023-02-28T08:25:27;4.90;;;4.60;;
12228;SDS011;6177;52.402;9.800;2023-02-28T08:28:18;5.77;;;4.80;;
12228;SDS011;6177;52.402;9.800;2023-02-28T08:31:10;5.33;;;4.83;;
12228;SDS011;6177;52.402;9.800;2023-02-28T08:34:06;6.20;;;5.67;;
12228;SDS011;6177;52.402;9.800;2023-02-28T08:36:57;7.13;;;4.80;;
12228;SDS011;6177;52.402;9.800;2023-02-28T08:39:47;7.47;;;6.73;;
12228;SDS011;6177;52.402;9.800;2023-02-28T08:42:38;5.40;;;5.00;;
12228;SDS011;6177;52.402;9.800;2023-02-28T08:45:29;8.47;;;5.27;;
12228;SDS011;6177;52.402;9.800;2023-02-28T08:48:20;4.03;;;3.73;;
12228;SDS011;6177;52.402;9.800;2023-02-28T08:51:13;4.87;;;4.20;;
12228;SDS011;6177;52.402;9.800;2023-02-28T08:54:12;3.83;;;3.53;;
12228;SDS011;6177;52.402;9.800;2023-02-28T08:57:04;3.43;;;3.17;;
12228;SDS011;6177;52.402;9.800;2023-02-28T08:59:54;4.63;;;3.20;;
12228;SDS011;6177;52.402;9.800;2023-02-28T09:02:45;3.27;;;2.67;;
12228;SDS011;6177;52.402;9.800;2023-02-28T09:05:36;3.10;;;2.80;;
12228;SDS011;6177;52.402;9.800;2023-02-28T09:08:28;3.10;;;2.80;;
12228;SDS011;6177;52.402;9.800;2023-02-28T09:11:20;2.53;;;2.03;;
12228;SDS011;6177;52.402;9.800;2023-02-28T09:14:10;2.20;;;2.20;;
12228;SDS011;6177;52.402;9.800;2023-02-28T09:17:01;2.30;;;2.20;;
12228;SDS011;6177;52.402;9.800;2023-02-28T09:19:52;1.93;;;1.90;;
12228;SDS011;6177;52.402;9.800;2023-02-28T09:22:43;5.97;;;4.37;;
12228;SDS011;6177;52.402;9.800;2023-02-28T09:25:34;2.60;;;2.50;;
12228;SDS011;6177;52.402;9.800;2023-02-28T09:28:25;2.23;;;2.13;;
12228;SDS011;6177;52.402;9.800;2023-02-28T09:31:19;2.07;;;1.97;;
12228;SDS011;6177;52.402;9.800;2023-02-28T09:34:11;2.07;;;1.97;;
12228;SDS011;6177;52.402;9.800;2023-02-28T09:37:02;2.13;;;2.03;;
12228;SDS011;6177;52.402;9.800;2023-02-28T09:39:53;2.13;;;2.03;;
12228;SDS011;6177;52.402;9.800;2023-02-28T09:42:48;3.17;;;2.10;;
12228;SDS011;6177;52.402;9.800;2023-02-28T09:45:39;1.83;;;1.80;;
12228;SDS011;6177;52.402;9.800;2023-02-28T09:48:32;2.17;;;2.00;;
12228;SDS011;6177;52.402;9.800;2023-02-28T09:54:41;2.10;;;2.00;;
12228;SDS011;6177;52.402;9.800;2023-02-28T09:57:36;2.17;;;1.90;;
12228;SDS011;6177;52.402;9.800;2023-02-28T10:00:33;1.77;;;1.70;;
12228;SDS011;6177;52.402;9.800;2023-02-28T10:03:36;1.87;;;1.77;;
12228;SDS011;6177;52.402;9.800;2023-02-28T10:06:33;1.87;;;1.77;;
12228;SDS011;6177;52.402;9.800;2023-02-28T10:09:30;2.53;;;1.90;;
12228;SDS011;6177;52.402;9.800;2023-02-28T10:12:22;1.83;;;1.60;;
12228;SDS011;6177;52.402;9.800;2023-02-28T10:15:15;1.87;;;1.70;;
12228;SDS011;6177;52.402;9.800;2023-02-28T10:18:09;1.90;;;1.80;;
12228;SDS011;6177;52.402;9.800;2023-02-28T10:21:01;2.10;;;2.03;;
12228;SDS011;6177;52.402;9.800;2023-02-28T10:23:56;1.70;;;1.60;;
12228;SDS011;6177;52.402;9.800;2023-02-28T10:30:09;1.10;;;1.10;;
12228;SDS011;6177;52.402;9.800;2023-02-28T10:33:00;1.20;;;1.20;;
12228;SDS011;6177;52.402;9.800;2023-02-28T10:35:51;2.77;;;1.80;;
12228;SDS011;6177;52.402;9.800;2023-02-28T10:38:42;13.97;;;2.47;;
12228;SDS011;6177;52.402;9.800;2023-02-28T10:41:34;1.13;;;1.13;;
12228;SDS011;6177;52.402;9.800;2023-02-28T10:44:32;1.20;;;1.20;;
12228;SDS011;6177;52.402;9.800;2023-02-28T10:47:23;1.67;;;1.27;;
12228;SDS011;6177;52.402;9.800;2023-02-28T10:56:18;1.50;;;1.00;;
12228;SDS011;6177;52.402;9.800;2023-02-28T11:02:36;0.83;;;0.83;;
12228;SDS011;6177;52.402;9.800;2023-02-28T11:05:35;3.50;;;1.20;;
12228;SDS011;6177;52.402;9.800;2023-02-28T11:08:26;1.03;;;1.03;;
12228;SDS011;6177;52.402;9.800;2023-02-28T11:11:18;0.70;;;0.70;;
12228;SDS011;6177;52.402;9.800;2023-02-28T11:14:20;0.90;;;0.90;;
12228;SDS011;6177;52.402;9.800;2023-02-28T11:17:18;0.90;;;0.90;;
12228;SDS011;6177;52.402;9.800;2023-02-28T11:20:18;1.13;;;1.00;;
12228;SDS011;6177;52.402;9.800;2023-02-28T11:23:13;0.80;;;0.80;;
12228;SDS011;6177;52.402;9.800;2023-02-28T11:26:04;3.93;;;1.10;;
12228;SDS011;6177;52.402;9.800;2023-02-28T11:29:38;1.10;;;1.10;;
12228;SDS011;6177;52.402;9.800;2023-02-28T11:32:18;1.40;;;1.30;;
12228;SDS011;6177;52.402;9.800;2023-02-28T11:38:00;0.70;;;0.70;;
12228;SDS011;6177;52.402;9.800;2023-02-28T11:40:57;0.70;;;0.70;;
12228;SDS011;6177;52.402;9.800;2023-02-28T11:44:17;2.60;;;1.03;;
12228;SDS011;6177;52.402;9.800;2023-02-28T11:47:16;0.80;;;0.80;;
12228;SDS011;6177;52.402;9.800;2023-02-28T11:56:44;1.10;;;0.90;;
12228;SDS011;6177;52.402;9.800;2023-02-28T11:59:43;1.07;;;0.93;;
12228;SDS011;6177;52.402;9.800;2023-02-28T12:06:15;1.23;;;1.23;;
12228;SDS011;6177;52.402;9.800;2023-02-28T12:18:32;1.43;;;1.33;;
12228;SDS011;6177;52.402;9.800;2023-02-28T12:27:52;1.47;;;1.37;;
12228;SDS011;6177;52.402;9.800;2023-02-28T12:30:49;1.30;;;1.20;;
12228;SDS011;6177;52.402;9.800;2023-02-28T12:33:45;1.07;;;0.97;;
12228;SDS011;6177;52.402;9.800;2023-02-28T12:36:39;1.10;;;1.10;;
12228;SDS011;6177;52.402;9.800;2023-02-28T12:39:33;1.07;;;1.07;;
12228;SDS011;6177;52.402;9.800;2023-02-28T12:42:27;2.30;;;1.60;;
12228;SDS011;6177;52.402;9.800;2023-02-28T12:45:20;0.93;;;0.90;;
12228;SDS011;6177;52.402;9.800;2023-02-28T12:48:14;1.20;;;1.20;;
12228;SDS011;6177;52.402;9.800;2023-02-28T12:51:05;1.23;;;1.13;;
12228;SDS011;6177;52.402;9.800;2023-02-28T13:00:28;1.80;;;1.70;;
12228;SDS011;6177;52.402;9.800;2023-02-28T13:09:40;1.60;;;1.50;;
12228;SDS011;6177;52.402;9.800;2023-02-28T13:12:31;1.67;;;1.67;;
12228;SDS011;6177;52.402;9.800;2023-02-28T13:15:24;2.20;;;2.10;;
12228;SDS011;6177;52.402;9.800;2023-02-28T13:18:32;2.23;;;1.80;;
12228;SDS011;6177;52.402;9.800;2023-02-28T13:21:27;2.20;;;1.70;;
12228;SDS011;6177;52.402;9.800;2023-02-28T13:27:35;1.60;;;1.50;;
12228;SDS011;6177;52.402;9.800;2023-02-28T13:36:49;1.60;;;1.50;;
12228;SDS011;6177;52.402;9.800;2023-02-28T13:45:37;1.70;;;1.60;;
12228;SDS011;6177;52.402;9.800;2023-02-28T13:48:30;2.10;;;2.00;;
12228;SDS011;6177;52.402;9.800;2023-02-28T13:51:40;1.60;;;1.50;;
12228;SDS011;6177;52.402;9.800;2023-02-28T13:57:56;1.77;;;1.67;;
12228;SDS011;6177;52.402;9.800;2023-02-28T14:07:49;1.75;;;1.65;;
12228;SDS011;6177;52.402;9.800;2023-02-28T14:10:44;1.38;;;1.38;;
12228;SDS011;6177;52.402;9.800;2023-02-28T14:13:38;2.00;;;1.90;;
12228;SDS011;6177;52.402;9.800;2023-02-28T14:16:36;1.55;;;1.55;;
12228;SDS011;6177;52.402;9.800;2023-02-28T14:19:32;2.40;;;2.00;;
12228;SDS011;6177;52.402;9.800;2023-02-28T14:25:30;2.05;;;1.50;;
12228;SDS011;6177;52.402;9.800;2023-02-28T14:31:41;3.85;;;1.90;;
12228;SDS011;6177;52.402;9.800;2023-02-28T14:34:55;1.63;;;1.52;;
12228;SDS011;6177;52.402;9.800;2023-02-28T14:37:54;1.48;;;1.38;;
12228;SDS011;6177;52.402;9.800;2023-02-28T14:40:45;1.50;;;1.45;;
12228;SDS011;6177;52.402;9.800;2023-02-28T14:43:36;2.22;;;1.70;;
12228;SDS011;6177;52.402;9.800;2023-02-28T14:46:37;1.58;;;1.48;;
12228;SDS011;6177;52.402;9.800;2023-02-28T14:49:29;1.90;;;1.80;;
12228;SDS011;6177;52.402;9.800;2023-02-28T14:52:22;1.90;;;1.30;;
12228;SDS011;6177;52.402;9.800;2023-02-28T14:55:17;1.80;;;1.63;;
12228;SDS011;6177;52.402;9.800;2023-02-28T14:58:19;2.22;;;1.70;;
12228;SDS011;6177;52.402;9.800;2023-02-28T15:01:20;1.88;;;1.77;;
12228;SDS011;6177;52.402;9.800;2023-02-28T15:04:14;1.52;;;1.52;;
12228;SDS011;6177;52.402;9.800;2023-02-28T15:07:12;1.73;;;1.63;;
12228;SDS011;6177;52.402;9.800;2023-02-28T15:10:24;3.05;;;2.75;;
12228;SDS011;6177;52.402;9.800;2023-02-28T15:13:17;1.60;;;1.60;;
12228;SDS011;6177;52.402;9.800;2023-02-28T15:16:13;1.55;;;1.45;;
12228;SDS011;6177;52.402;9.800;2023-02-28T15:19:08;1.65;;;1.55;;
12228;SDS011;6177;52.402;9.800;2023-02-28T15:22:11;1.70;;;1.60;;
12228;SDS011;6177;52.402;9.800;2023-02-28T15:25:05;1.92;;;1.83;;
12228;SDS011;6177;52.402;9.800;2023-02-28T15:27:57;1.92;;;1.83;;
12228;SDS011;6177;52.402;9.800;2023-02-28T15:30:58;1.70;;;1.70;;
12228;SDS011;6177;52.402;9.800;2023-02-28T15:33:57;1.70;;;1.60;;
12228;SDS011;6177;52.402;9.800;2023-02-28T15:36:53;1.95;;;1.85;;
12228;SDS011;6177;52.402;9.800;2023-02-28T15:39:44;1.75;;;1.65;;
12228;SDS011;6177;52.402;9.800;2023-02-28T15:42:35;1.70;;;1.70;;
12228;SDS011;6177;52.402;9.800;2023-02-28T15:45:28;1.40;;;1.30;;
12228;SDS011;6177;52.402;9.800;2023-02-28T15:48:50;1.90;;;1.80;;
12228;SDS011;6177;52.402;9.800;2023-02-28T15:51:42;1.77;;;1.73;;
12228;SDS011;6177;52.402;9.800;2023-02-28T15:54:33;1.77;;;1.67;;
12228;SDS011;6177;52.402;9.800;2023-02-28T15:57:25;2.47;;;1.85;;
12228;SDS011;6177;52.402;9.800;2023-02-28T16:00:21;1.67;;;1.63;;
12228;SDS011;6177;52.402;9.800;2023-02-28T16:03:26;1.90;;;1.80;;
12228;SDS011;6177;52.402;9.800;2023-02-28T16:09:16;2.00;;;1.90;;
12228;SDS011;6177;52.402;9.800;2023-02-28T16:12:08;1.65;;;1.55;;
12228;SDS011;6177;52.402;9.800;2023-02-28T16:15:26;1.67;;;1.63;;
12228;SDS011;6177;52.402;9.800;2023-02-28T16:18:18;1.60;;;1.60;;
12228;SDS011;6177;52.402;9.800;2023-02-28T16:21:09;1.80;;;1.70;;
12228;SDS011;6177;52.402;9.800;2023-02-28T16:24:01;1.60;;;1.60;;
12228;SDS011;6177;52.402;9.800;2023-02-28T16:26:52;1.88;;;1.77;;
12228;SDS011;6177;52.402;9.800;2023-02-28T16:29:43;1.80;;;1.70;;
12228;SDS011;6177;52.402;9.800;2023-02-28T16:32:36;1.85;;;1.50;;
12228;SDS011;6177;52.402;9.800;2023-02-28T16:35:26;1.53;;;1.53;;
12228;SDS011;6177;52.402;9.800;2023-02-28T16:38:17;1.97;;;1.87;;
12228;SDS011;6177;52.402;9.800;2023-02-28T16:41:10;1.77;;;1.57;;
12228;SDS011;6177;52.402;9.800;2023-02-28T16:44:10;1.83;;;1.73;;
12228;SDS011;6177;52.402;9.800;2023-02-28T16:47:03;2.20;;;2.10;;
12228;SDS011;6177;52.402;9.800;2023-02-28T16:49:54;2.07;;;1.97;;
12228;SDS011;6177;52.402;9.800;2023-02-28T16:52:45;2.37;;;2.27;;
12228;SDS011;6177;52.402;9.800;2023-02-28T16:55:36;2.47;;;2.37;;
12228;SDS011;6177;52.402;9.800;2023-02-28T16:58:27;2.37;;;2.27;;
12228;SDS011;6177;52.402;9.800;2023-02-28T17:01:19;3.20;;;2.67;;
12228;SDS011;6177;52.402;9.800;2023-02-28T17:04:11;2.97;;;2.77;;
12228;SDS011;6177;52.402;9.800;2023-02-28T17:07:02;3.77;;;3.20;;
12228;SDS011;6177;52.402;9.800;2023-02-28T17:09:54;3.57;;;3.27;;
12228;SDS011;6177;52.402;9.800;2023-02-28T17:12:44;3.50;;;3.30;;
12228;SDS011;6177;52.402;9.800;2023-02-28T17:15:35;3.67;;;3.47;;
12228;SDS011;6177;52.402;9.800;2023-02-28T17:18:26;3.50;;;3.30;;
12228;SDS011;6177;52.402;9.800;2023-02-28T17:21:23;2.97;;;2.87;;
12228;SDS011;6177;52.402;9.800;2023-02-28T17:24:15;3.40;;;3.10;;
12228;SDS011;6177;52.402;9.800;2023-02-28T17:27:05;3.47;;;3.23;;
12228;SDS011;6177;52.402;9.800;2023-02-28T17:29:57;3.27;;;3.07;;
12228;SDS011;6177;52.402;9.800;2023-02-28T17:32:49;2.87;;;2.67;;
12228;SDS011;6177;52.402;9.800;2023-02-28T17:35:39;3.10;;;2.80;;
12228;SDS011;6177;52.402;9.800;2023-02-28T17:38:31;3.33;;;2.73;;
12228;SDS011;6177;52.402;9.800;2023-02-28T17:41:22;3.20;;;2.90;;
12228;SDS011;6177;52.402;9.800;2023-02-28T17:44:12;3.07;;;2.87;;
12228;SDS011;6177;52.402;9.800;2023-02-28T17:47:04;2.70;;;2.60;;
12228;SDS011;6177;52.402;9.800;2023-02-28T17:49:55;3.03;;;2.80;;
12228;SDS011;6177;52.402;9.800;2023-02-28T17:52:46;3.00;;;2.80;;
12228;SDS011;6177;52.402;9.800;2023-02-28T17:55:37;3.50;;;3.30;;
12228;SDS011;6177;52.402;9.800;2023-02-28T17:58:27;4.07;;;3.67;;
12228;SDS011;6177;52.402;9.800;2023-02-28T18:01:19;4.07;;;3.77;;
12228;SDS011;6177;52.402;9.800;2023-02-28T18:04:10;5.13;;;4.17;;
12228;SDS011;6177;52.402;9.800;2023-02-28T18:07:02;5.70;;;5.20;;
12228;SDS011;6177;52.402;9.800;2023-02-28T18:09:52;5.07;;;4.67;;
12228;SDS011;6177;52.402;9.800;2023-02-28T18:12:42;5.20;;;4.90;;
12228;SDS011;6177;52.402;9.800;2023-02-28T18:15:33;4.80;;;4.40;;
12228;SDS011;6177;52.402;9.800;2023-02-28T18:18:25;5.87;;;5.37;;
12228;SDS011;6177;52.402;9.800;2023-02-28T18:21:15;5.67;;;5.27;;
12228;SDS011;6177;52.402;9.800;2023-02-28T18:24:07;5.10;;;4.80;;
12228;SDS011;6177;52.402;9.800;2023-02-28T18:26:59;5.60;;;5.13;;
12228;SDS011;6177;52.402;9.800;2023-02-28T18:29:50;5.33;;;4.93;;
12228;SDS011;6177;52.402;9.800;2023-02-28T18:32:42;5.00;;;4.60;;
12228;SDS011;6177;52.402;9.800;2023-02-28T18:35:32;5.57;;;4.60;;
12228;SDS011;6177;52.402;9.800;2023-02-28T18:38:27;4.40;;;4.10;;
12228;SDS011;6177;52.402;9.800;2023-02-28T18:41:19;4.70;;;4.30;;
12228;SDS011;6177;52.402;9.800;2023-02-28T18:44:10;3.93;;;3.63;;
12228;SDS011;6177;52.402;9.800;2023-02-28T18:47:03;4.17;;;3.87;;
12228;SDS011;6177;52.402;9.800;2023-02-28T18:49:55;3.63;;;3.33;;
12228;SDS011;6177;52.402;9.800;2023-02-28T18:52:45;3.90;;;3.60;;
12228;SDS011;6177;52.402;9.800;2023-02-28T18:55:37;4.77;;;4.47;;
12228;SDS011;6177;52.402;9.800;2023-02-28T18:58:28;5.53;;;4.87;;
12228;SDS011;6177;52.402;9.800;2023-02-28T19:01:23;5.10;;;4.70;;
12228;SDS011;6177;52.402;9.800;2023-02-28T19:04:17;5.03;;;4.60;;
12228;SDS011;6177;52.402;9.800;2023-02-28T19:07:08;5.37;;;4.33;;
12228;SDS011;6177;52.402;9.800;2023-02-28T19:09:58;4.63;;;4.30;;
12228;SDS011;6177;52.402;9.800;2023-02-28T19:12:49;5.33;;;4.03;;
12228;SDS011;6177;52.402;9.800;2023-02-28T19:15:41;6.83;;;4.10;;
12228;SDS011;6177;52.402;9.800;2023-02-28T19:18:31;4.53;;;4.20;;
12228;SDS011;6177;52.402;9.800;2023-02-28T19:21:23;5.13;;;4.83;;
12228;SDS011;6177;52.402;9.800;2023-02-28T19:24:14;4.97;;;4.57;;
12228;SDS011;6177;52.402;9.800;2023-02-28T19:27:04;6.60;;;5.90;;
12228;SDS011;6177;52.402;9.800;2023-02-28T19:29:56;7.00;;;6.40;;
12228;SDS011;6177;52.402;9.800;2023-02-28T19:32:48;8.67;;;7.97;;
12228;SDS011;6177;52.402;9.800;2023-02-28T19:35:39;8.13;;;7.43;;
12228;SDS011;6177;52.402;9.800;2023-02-28T19:38:30;6.57;;;6.07;;